Time;durP1;ratioP1;P1;durP2;ratioP2;P2;SDS_P1;SDS_P2;PMS_P1;PMS_P2;Temp;Humidity;BMP_temperature;BMP_pressure;BME280_temperature;BME280_humidity;BME280_pressure;Samples;Min_cycle;Max_cycle;Signal;HPM_P1;HPM_P2
2023/03/25 00:01:08;;;;;;;5.83;4.07;;;8.60;99.90;;;;;;5094999;28;20150;-67
2023/03/25 00:03:40;;;;;;;6.27;3.50;;;8.60;99.90;;;;;;5095263;28;20153;-67
2023/03/25 00:06:07;;;;;;;4.23;3.77;;;8.60;99.90;;;;;;5094596;28;20150;-67
2023/03/25 00:08:33;;;;;;;6.00;4.00;;;8.50;99.90;;;;;;5094295;28;20242;-67
2023/03/25 00:11:02;;;;;;;4.57;3.80;;;8.50;99.90;;;;;;5093249;28;20639;-67
2023/03/25 00:13:30;;;;;;;7.47;4.10;;;8.50;99.90;;;;;;5094455;28;20173;-67
2023/03/25 00:15:57;;;;;;;5.47;4.13;;;8.40;99.90;;;;;;5094276;28;20252;-67
2023/03/25 00:18:25;;;;;;;5.03;3.50;;;8.50;99.90;;;;;;5094225;28;20193;-66
2023/03/25 00:20:52;;;;;;;6.00;3.43;;;8.40;99.90;;;;;;5094716;28;20181;-67
2023/03/25 00:23:21;;;;;;;3.47;3.20;;;8.50;99.90;;;;;;5094227;28;20173;-67
2023/03/25 00:25:48;;;;;;;3.93;3.57;;;8.50;99.90;;;;;;5093045;28;20173;-66
2023/03/25 00:28:15;;;;;;;5.87;3.47;;;8.50;99.90;;;;;;5094151;28;20825;-66
2023/03/25 00:30:43;;;;;;;3.50;3.20;;;8.50;99.90;;;;;;5094099;28;20661;-66
2023/03/25 00:33:16;;;;;;;3.67;3.30;;;8.50;99.90;;;;;;5093200;28;20201;-67
2023/03/25 00:35:47;;;;;;;5.10;3.23;;;8.50;99.90;;;;;;5094062;28;20153;-66
2023/03/25 00:38:13;;;;;;;4.17;3.50;;;8.50;99.90;;;;;;5094531;28;20551;-66
2023/03/25 00:40:39;;;;;;;11.43;3.53;;;8.50;99.90;;;;;;5094614;28;20227;-66
2023/03/25 00:43:06;;;;;;;5.37;3.30;;;8.40;99.90;;;;;;5094103;28;20173;-67
2023/03/25 00:45:32;;;;;;;6.57;3.27;;;8.50;99.90;;;;;;5092383;28;20209;-67
2023/03/25 00:47:58;;;;;;;5.43;3.90;;;8.50;99.90;;;;;;5092557;28;20208;-66
2023/03/25 00:50:25;;;;;;;6.40;3.60;;;8.50;99.90;;;;;;5093813;28;20165;-66
2023/03/25 00:52:53;;;;;;;7.20;3.67;;;8.50;99.90;;;;;;5092361;28;20266;-67
2023/03/25 00:55:19;;;;;;;6.77;3.60;;;8.40;99.90;;;;;;5094013;28;20169;-67
2023/03/25 00:57:45;;;;;;;6.73;3.90;;;8.40;99.90;;;;;;5093539;28;20586;-67
2023/03/25 01:00:14;;;;;;;5.50;3.83;;;8.50;99.90;;;;;;5092479;28;20205;-67
2023/03/25 01:02:41;;;;;;;4.10;3.70;;;8.50;99.90;;;;;;5093687;28;20222;-67
2023/03/25 01:05:09;;;;;;;6.73;3.83;;;8.50;99.90;;;;;;5092432;28;20173;-67
2023/03/25 01:07:36;;;;;;;4.17;3.70;;;8.50;99.90;;;;;;5092347;28;20616;-67
2023/03/25 01:10:03;;;;;;;7.17;3.93;;;8.50;99.90;;;;;;5093742;28;20178;-67
2023/03/25 01:12:29;;;;;;;5.67;3.70;;;8.50;99.90;;;;;;5092602;28;20246;-66
2023/03/25 01:14:55;;;;;;;7.53;3.57;;;8.60;99.90;;;;;;5094254;28;20625;-66
2023/03/25 01:17:21;;;;;;;5.07;3.80;;;8.60;99.90;;;;;;5094141;28;20193;-67
2023/03/25 01:19:47;;;;;;;4.13;3.43;;;8.60;99.90;;;;;;5095039;28;20200;-67
2023/03/25 01:22:12;;;;;;;6.07;4.07;;;8.60;99.90;;;;;;5094601;28;20236;-67
2023/03/25 01:24:38;;;;;;;5.13;3.70;;;8.60;99.90;;;;;;5094103;28;20655;-67
2023/03/25 01:27:04;;;;;;;7.63;3.70;;;8.60;99.90;;;;;;5094331;28;20247;-67
2023/03/25 01:29:30;;;;;;;5.10;3.70;;;8.70;99.90;;;;;;5092699;28;20256;-66
2023/03/25 01:31:57;;;;;;;7.83;3.77;;;8.70;99.90;;;;;;5092328;28;20205;-66
2023/03/25 01:34:23;;;;;;;5.97;3.97;;;8.70;99.90;;;;;;5092373;28;20177;-67
2023/03/25 01:36:49;;;;;;;5.47;4.00;;;8.70;99.90;;;;;;5093332;28;20216;-67
2023/03/25 01:39:18;;;;;;;4.20;3.80;;;8.70;99.90;;;;;;5093171;28;20209;-67
2023/03/25 01:41:45;;;;;;;6.83;3.67;;;8.70;99.90;;;;;;5092208;28;20208;-67
2023/03/25 01:44:20;;;;;;;6.93;3.53;;;8.70;99.90;;;;;;5093924;28;20173;-67
2023/03/25 01:46:48;;;;;;;5.00;3.63;;;8.70;99.90;;;;;;5092222;28;20165;-67
2023/03/25 01:49:22;;;;;;;5.70;3.60;;;8.70;99.90;;;;;;5093140;28;20193;-67
2023/03/25 01:51:51;;;;;;;5.23;3.70;;;8.70;99.90;;;;;;5093676;28;20192;-67
2023/03/25 01:54:17;;;;;;;6.00;3.77;;;8.70;99.90;;;;;;5093103;28;20174;-67
2023/03/25 01:56:46;;;;;;;9.77;3.93;;;8.70;99.90;;;;;;5091816;28;20273;-67
2023/03/25 01:59:16;;;;;;;4.67;3.53;;;8.70;99.90;;;;;;5096810;28;20209;-67
2023/03/25 02:01:45;;;;;;;5.10;3.87;;;8.70;99.90;;;;;;5095805;28;20252;-67
2023/03/25 02:04:15;;;;;;;4.90;3.77;;;8.60;99.90;;;;;;5096998;28;20169;-67
2023/03/25 02:06:45;;;;;;;8.40;4.63;;;8.60;99.90;;;;;;5097514;28;20174;-67
2023/03/25 02:09:14;;;;;;;5.43;3.60;;;8.60;99.90;;;;;;5096563;28;20779;-67
2023/03/25 02:11:40;;;;;;;7.30;3.93;;;8.60;99.90;;;;;;5096822;28;20238;-67
2023/03/25 02:14:09;;;;;;;6.70;3.80;;;8.60;99.90;;;;;;5095583;28;20177;-67
2023/03/25 02:16:48;;;;;;;5.43;3.80;;;8.70;99.90;;;;;;5095521;28;20187;-67
2023/03/25 02:19:50;;;;;;;7.93;4.00;;;8.70;99.90;;;;;;5095263;28;20208;-67
2023/03/25 02:22:40;;;;;;;7.90;4.40;;;8.70;99.90;;;;;;5096553;28;20721;-67
2023/03/25 02:25:34;;;;;;;6.33;4.47;;;8.70;99.90;;;;;;5097177;28;20168;-67
2023/03/25 02:28:24;;;;;;;6.03;3.90;;;8.70;99.90;;;;;;5096770;28;20237;-66
2023/03/25 02:31:27;;;;;;;6.53;4.17;;;8.70;99.90;;;;;;5095418;28;20522;-67
2023/03/25 02:34:30;;;;;;;4.27;3.87;;;8.70;99.90;;;;;;5095241;28;20189;-67
2023/03/25 02:37:10;;;;;;;8.07;4.37;;;8.80;99.90;;;;;;5097084;28;20517;-67
2023/03/25 02:39:51;;;;;;;5.70;3.90;;;8.70;99.90;;;;;;5096186;28;20195;-67
2023/03/25 02:42:38;;;;;;;10.13;4.17;;;8.70;99.90;;;;;;5096247;28;20153;-67
2023/03/25 02:45:27;;;;;;;9.87;4.10;;;8.70;99.90;;;;;;5095007;28;20166;-67
2023/03/25 02:47:59;;;;;;;7.80;4.07;;;8.70;99.90;;;;;;5096303;28;20242;-66
2023/03/25 02:50:32;;;;;;;10.20;4.40;;;8.70;99.90;;;;;;5096691;28;20252;-66
2023/03/25 02:53:00;;;;;;;8.47;3.90;;;8.70;99.90;;;;;;5094843;28;20189;-67
2023/03/25 02:55:32;;;;;;;4.03;3.63;;;8.70;99.90;;;;;;5096154;28;20247;-67
2023/03/25 02:58:03;;;;;;;4.23;3.90;;;8.70;99.90;;;;;;5095986;28;20213;-69
2023/03/25 03:00:30;;;;;;;6.23;3.87;;;8.70;99.90;;;;;;5096122;28;20213;-67
2023/03/25 03:02:58;;;;;;;7.77;4.00;;;8.70;99.90;;;;;;5094655;28;20180;-67
2023/03/25 03:05:32;;;;;;;4.87;3.90;;;8.70;99.90;;;;;;5095948;28;20178;-67
2023/03/25 03:08:23;;;;;;;5.40;3.67;;;8.70;99.90;;;;;;5093867;28;20207;-67
2023/03/25 03:11:13;;;;;;;6.27;4.03;;;8.70;99.90;;;;;;5094418;28;20162;-67
2023/03/25 03:13:42;;;;;;;6.27;3.70;;;8.70;99.90;;;;;;5094377;28;20165;-66
2023/03/25 03:16:29;;;;;;;6.27;3.73;;;8.60;99.90;;;;;;5094249;28;20177;-67
2023/03/25 03:19:33;;;;;;;4.77;4.27;;;8.60;99.90;;;;;;5095393;28;20558;-67
2023/03/25 03:22:16;;;;;;;7.77;4.03;;;8.60;99.90;;;;;;5095735;28;20161;-67
2023/03/25 03:24:54;;;;;;;6.77;3.87;;;8.50;99.90;;;;;;5094069;28;20207;-67
2023/03/25 03:27:35;;;;;;;6.13;4.07;;;8.50;99.90;;;;;;5094139;28;20215;-70
2023/03/25 03:30:10;;;;;;;4.17;3.80;;;8.60;99.90;;;;;;5094219;28;20173;-69
2023/03/25 03:33:00;;;;;;;4.50;4.07;;;8.60;99.90;;;;;;5095360;28;20247;-70
2023/03/25 03:35:50;;;;;;;4.13;3.70;;;8.60;99.90;;;;;;5094067;28;20179;-69
2023/03/25 03:38:20;;;;;;;5.93;3.90;;;8.60;99.90;;;;;;5093852;28;20201;-69
2023/03/25 03:40:54;;;;;;;6.40;3.63;;;8.60;99.90;;;;;;5095349;28;20199;-65
2023/03/25 03:43:37;;;;;;;7.17;3.67;;;8.60;99.90;;;;;;5095525;28;20568;-65
2023/03/25 03:46:07;;;;;;;5.10;3.97;;;8.50;99.90;;;;;;5093773;28;20242;-68
2023/03/25 03:48:43;;;;;;;8.07;3.90;;;8.60;99.90;;;;;;5093669;28;20280;-67
2023/03/25 03:51:17;;;;;;;6.43;3.80;;;8.60;99.90;;;;;;5095091;28;20157;-67
2023/03/25 03:54:05;;;;;;;4.57;3.83;;;8.60;99.90;;;;;;5093369;28;20177;-68
2023/03/25 03:56:35;;;;;;;4.47;3.77;;;8.60;99.90;;;;;;5095068;28;20192;-68
2023/03/25 03:59:13;;;;;;;4.17;3.60;;;8.60;99.90;;;;;;5094430;28;20243;-68
2023/03/25 04:01:46;;;;;;;7.13;4.00;;;8.60;99.90;;;;;;5094744;28;20165;-68
2023/03/25 04:04:19;;;;;;;4.13;3.83;;;8.60;99.90;;;;;;5095020;28;20614;-68
2023/03/25 04:07:03;;;;;;;5.23;3.97;;;8.50;99.90;;;;;;5093285;28;20165;-67
2023/03/25 04:09:42;;;;;;;4.67;4.13;;;8.40;99.90;;;;;;5093165;28;20177;-68
2023/03/25 04:12:11;;;;;;;5.77;4.10;;;8.30;99.90;;;;;;5094451;28;20236;-68
2023/03/25 04:14:38;;;;;;;4.77;4.33;;;8.30;99.90;;;;;;5095372;28;20521;-68
2023/03/25 04:17:05;;;;;;;4.23;3.83;;;8.30;99.90;;;;;;5094673;28;20633;-68
2023/03/25 04:19:34;;;;;;;4.67;4.30;;;8.20;99.90;;;;;;5092591;28;20209;-68
2023/03/25 04:22:01;;;;;;;5.77;4.00;;;8.20;99.90;;;;;;5092700;28;20249;-68
2023/03/25 04:24:30;;;;;;;4.70;4.20;;;8.20;99.90;;;;;;5094151;28;20170;-68
2023/03/25 04:27:03;;;;;;;8.93;4.33;;;8.20;99.90;;;;;;5093040;28;20543;-68
2023/03/25 04:29:33;;;;;;;7.13;4.73;;;8.20;99.90;;;;;;5094471;28;20157;-68
2023/03/25 04:32:00;;;;;;;5.13;4.63;;;8.10;99.90;;;;;;5094217;28;20228;-68
2023/03/25 04:34:26;;;;;;;6.20;4.43;;;8.10;99.90;;;;;;5092846;28;20188;-68
2023/03/25 04:36:53;;;;;;;8.50;4.80;;;8.10;99.90;;;;;;5094129;28;20271;-68
2023/03/25 04:39:22;;;;;;;5.30;4.40;;;8.10;99.90;;;;;;5093818;28;20214;-68
2023/03/25 04:42:02;;;;;;;6.10;5.07;;;8.10;99.90;;;;;;5095997;28;20221;-68
2023/03/25 04:44:37;;;;;;;6.83;4.63;;;8.10;99.90;;;;;;5094940;28;20189;-68
2023/03/25 04:47:06;;;;;;;5.53;5.00;;;8.20;99.90;;;;;;5094183;28;20568;-67
2023/03/25 04:49:32;;;;;;;5.67;4.33;;;8.20;99.90;;;;;;5092778;28;20177;-67
2023/03/25 04:52:01;;;;;;;11.43;5.07;;;8.20;99.90;;;;;;5092647;28;20275;-67
2023/03/25 04:54:27;;;;;;;6.17;4.67;;;8.30;99.90;;;;;;5092474;28;20177;-68
2023/03/25 04:56:52;;;;;;;9.70;4.63;;;8.30;99.90;;;;;;5094364;28;20214;-67
2023/03/25 04:59:20;;;;;;;5.10;4.10;;;8.30;99.90;;;;;;5092459;28;20299;-67
2023/03/25 05:01:46;;;;;;;7.67;4.47;;;8.30;99.90;;;;;;5093801;28;20175;-67
2023/03/25 05:04:16;;;;;;;7.90;4.53;;;8.40;99.90;;;;;;5093661;28;20169;-68
2023/03/25 05:06:49;;;;;;;5.93;4.50;;;8.30;99.90;;;;;;5092404;28;20165;-68
2023/03/25 05:09:22;;;;;;;6.90;4.30;;;8.30;99.90;;;;;;5093758;28;20197;-68
2023/03/25 05:11:50;;;;;;;7.23;4.30;;;8.20;99.90;;;;;;5092448;28;20252;-68
2023/03/25 05:14:18;;;;;;;7.20;4.37;;;8.20;99.90;;;;;;5092352;28;20589;-68
2023/03/25 05:16:45;;;;;;;7.23;4.60;;;8.20;99.90;;;;;;5093697;28;20173;-68
2023/03/25 05:19:13;;;;;;;9.20;5.23;;;8.10;99.90;;;;;;5093455;28;20577;-68
2023/03/25 05:21:41;;;;;;;8.57;5.10;;;8.10;99.90;;;;;;5093693;28;20168;-68
2023/03/25 05:24:12;;;;;;;9.00;4.97;;;8.10;99.90;;;;;;5093598;28;20214;-70
2023/03/25 05:26:39;;;;;;;6.93;5.13;;;8.10;99.90;;;;;;5095158;28;20172;-68
2023/03/25 05:29:15;;;;;;;8.20;5.60;;;8.10;99.90;;;;;;5093585;28;20704;-68
2023/03/25 05:31:44;;;;;;;10.13;4.90;;;8.10;99.90;;;;;;5096102;28;20177;-68
2023/03/25 05:34:09;;;;;;;11.17;5.60;;;8.20;99.90;;;;;;5098248;28;20670;-68
2023/03/25 05:36:35;;;;;;;6.63;5.40;;;8.10;99.90;;;;;;5097497;28;20173;-68
2023/03/25 05:39:03;;;;;;;6.13;5.03;;;8.20;99.90;;;;;;5095791;28;20690;-68
2023/03/25 05:41:32;;;;;;;7.37;4.63;;;8.20;99.90;;;;;;5096100;28;20177;-68
2023/03/25 05:43:59;;;;;;;7.03;4.73;;;8.20;99.90;;;;;;5096231;28;20184;-68
2023/03/25 05:46:28;;;;;;;9.43;4.87;;;8.20;99.90;;;;;;5097296;28;20650;-71
2023/03/25 05:48:56;;;;;;;8.37;5.13;;;8.20;99.90;;;;;;5097581;28;20193;-68
2023/03/25 05:51:23;;;;;;;7.77;4.90;;;8.20;99.90;;;;;;5096136;28;20188;-68
2023/03/25 05:53:48;;;;;;;10.47;5.37;;;8.20;99.90;;;;;;5095844;28;20657;-68
2023/03/25 05:56:18;;;;;;;7.27;5.10;;;8.10;99.90;;;;;;5096313;28;20177;-68
2023/03/25 05:58:45;;;;;;;10.33;5.17;;;8.10;99.90;;;;;;5096738;28;20209;-68
2023/03/25 06:01:15;;;;;;;5.33;4.80;;;8.00;99.90;;;;;;5097060;28;20180;-68
2023/03/25 06:03:42;;;;;;;8.90;5.07;;;7.90;99.90;;;;;;5097149;28;20174;-68
2023/03/25 06:06:17;;;;;;;8.70;5.13;;;7.90;99.90;;;;;;5097666;28;20239;-68
2023/03/25 06:08:49;;;;;;;8.37;4.63;;;7.90;99.90;;;;;;5096824;28;20184;-68
2023/03/25 06:11:16;;;;;;;8.27;5.03;;;7.90;99.90;;;;;;5097308;28;20166;-68
2023/03/25 06:13:48;;;;;;;8.80;5.10;;;7.90;99.90;;;;;;5097399;28;20157;-68
2023/03/25 06:16:19;;;;;;;6.07;4.70;;;8.00;99.90;;;;;;5097425;28;20654;-68
2023/03/25 06:18:49;;;;;;;13.63;5.03;;;8.00;99.90;;;;;;5097225;28;20193;-68
2023/03/25 06:21:21;;;;;;;7.80;5.50;;;8.00;99.90;;;;;;5096008;28;20538;-68
2023/03/25 06:23:48;;;;;;;5.27;4.77;;;8.00;99.90;;;;;;5096846;28;20185;-67
2023/03/25 06:26:17;;;;;;;8.13;5.17;;;8.00;99.90;;;;;;5096591;28;20170;-67
2023/03/25 06:28:44;;;;;;;7.63;5.17;;;8.00;99.90;;;;;;5096521;28;20197;-67
2023/03/25 06:31:21;;;;;;;7.27;4.60;;;8.00;99.90;;;;;;5096747;28;20260;-67
2023/03/25 06:33:48;;;;;;;9.17;4.93;;;8.10;99.90;;;;;;5096419;28;20205;-67
2023/03/25 06:36:17;;;;;;;6.37;4.60;;;8.10;99.90;;;;;;5096836;28;20165;-67
2023/03/25 06:38:44;;;;;;;6.33;4.87;;;8.10;99.90;;;;;;5096559;28;20185;-66
2023/03/25 06:41:10;;;;;;;12.23;5.60;;;8.10;99.90;;;;;;5096080;28;20169;-67
2023/03/25 06:43:36;;;;;;;7.97;4.80;;;8.10;99.90;;;;;;5095442;28;20652;-67
2023/03/25 06:46:02;;;;;;;8.43;5.47;;;8.10;99.90;;;;;;5096406;28;20173;-67
2023/03/25 06:48:28;;;;;;;5.40;4.90;;;8.10;99.90;;;;;;5094669;28;20201;-67
2023/03/25 06:50:54;;;;;;;8.70;4.93;;;8.10;99.90;;;;;;5096109;28;20196;-67
2023/03/25 06:53:20;;;;;;;12.10;5.30;;;8.20;99.90;;;;;;5095771;28;20203;-67
2023/03/25 06:55:46;;;;;;;6.63;4.70;;;8.20;99.90;;;;;;5095893;28;20181;-66
2023/03/25 06:58:12;;;;;;;7.27;5.30;;;8.20;99.90;;;;;;5094156;28;20217;-67
2023/03/25 07:00:38;;;;;;;9.43;4.97;;;8.20;99.90;;;;;;5095973;28;20203;-67
2023/03/25 07:03:04;;;;;;;9.80;5.20;;;8.20;99.90;;;;;;5095811;28;20173;-67
2023/03/25 07:05:30;;;;;;;7.10;4.97;;;8.30;99.90;;;;;;5094671;28;20541;-67
2023/03/25 07:07:57;;;;;;;11.30;5.07;;;8.30;99.90;;;;;;5095659;28;20233;-67
2023/03/25 07:10:22;;;;;;;7.33;4.87;;;8.30;99.90;;;;;;5095499;28;20177;-67
2023/03/25 07:12:48;;;;;;;6.33;5.00;;;8.30;99.90;;;;;;5094256;28;20208;-67
2023/03/25 07:15:14;;;;;;;7.90;4.80;;;8.30;99.90;;;;;;5094248;28;20650;-67
2023/03/25 07:17:41;;;;;;;9.70;5.73;;;8.30;99.90;;;;;;5095545;28;20192;-66
2023/03/25 07:20:08;;;;;;;12.80;5.20;;;8.30;99.90;;;;;;5095527;28;20227;-68
2023/03/25 07:22:34;;;;;;;8.43;5.00;;;8.10;99.90;;;;;;5095828;28;20181;-67
2023/03/25 07:25:00;;;;;;;7.43;4.90;;;8.00;99.90;;;;;;5096941;28;20185;-67
2023/03/25 07:27:26;;;;;;;8.00;5.30;;;7.70;99.90;;;;;;5096428;28;20611;-67
2023/03/25 07:29:51;;;;;;;8.50;5.07;;;7.60;99.90;;;;;;5094535;28;20588;-67
2023/03/25 07:32:17;;;;;;;10.13;5.23;;;7.50;99.90;;;;;;5094514;28;20212;-67
2023/03/25 07:34:43;;;;;;;9.40;4.93;;;7.40;99.90;;;;;;5095798;28;20181;-67
2023/03/25 07:37:09;;;;;;;7.70;4.87;;;7.30;99.90;;;;;;5093755;28;20181;-67
2023/03/25 07:39:35;;;;;;;5.67;4.70;;;7.30;99.90;;;;;;5093678;28;20283;-67
2023/03/25 07:42:00;;;;;;;12.33;5.17;;;7.30;99.90;;;;;;5094956;28;20197;-67
2023/03/25 07:44:26;;;;;;;9.37;5.60;;;7.30;99.90;;;;;;5093756;28;20185;-67
2023/03/25 07:46:52;;;;;;;11.20;5.97;;;7.30;99.90;;;;;;5093609;28;20577;-67
2023/03/25 07:49:18;;;;;;;10.03;5.27;;;7.40;99.90;;;;;;5095119;28;20242;-67
2023/03/25 07:51:45;;;;;;;8.43;5.20;;;7.50;99.90;;;;;;5095141;28;20244;-67
2023/03/25 07:54:11;;;;;;;9.43;5.67;;;7.50;99.90;;;;;;5093724;28;20228;-71
2023/03/25 07:56:36;;;;;;;14.83;6.07;;;7.60;99.90;;;;;;5095007;28;20184;-69
2023/03/25 07:59:03;;;;;;;11.30;5.73;;;7.70;99.90;;;;;;5094418;28;20588;-69
2023/03/25 08:01:29;;;;;;;7.07;5.33;;;7.90;99.90;;;;;;5094929;28;20560;-69
2023/03/25 08:03:55;;;;;;;6.60;5.03;;;8.00;99.90;;;;;;5093311;28;20177;-69
2023/03/25 08:06:21;;;;;;;15.33;5.40;;;8.10;99.90;;;;;;5093345;28;20199;-69
2023/03/25 08:08:46;;;;;;;11.53;5.53;;;8.20;99.90;;;;;;5093020;28;20200;-69
2023/03/25 08:11:12;;;;;;;16.00;5.80;;;8.40;99.90;;;;;;5095049;28;20176;-69
2023/03/25 08:13:38;;;;;;;10.20;5.00;;;8.40;99.90;;;;;;5094954;28;20166;-69
2023/03/25 08:16:13;;;;;;;12.33;5.50;;;8.40;99.90;;;;;;5094563;28;20696;-69
2023/03/25 08:18:39;;;;;;;9.83;5.50;;;8.40;99.90;;;;;;5092866;28;20222;-69
2023/03/25 08:21:05;;;;;;;8.67;5.10;;;8.40;99.90;;;;;;5093001;28;20291;-69
2023/03/25 08:23:35;;;;;;;6.93;4.90;;;8.40;99.90;;;;;;5094244;28;20185;-69
2023/03/25 08:26:01;;;;;;;10.93;5.40;;;8.30;99.90;;;;;;5094383;28;20157;-69
2023/03/25 08:28:27;;;;;;;8.23;4.73;;;8.30;99.90;;;;;;5094108;28;20677;-69
2023/03/25 08:30:54;;;;;;;7.30;5.17;;;8.40;99.90;;;;;;5094066;28;20173;-69
2023/03/25 08:33:21;;;;;;;13.90;5.10;;;8.40;99.90;;;;;;5093936;28;20260;-68
2023/03/25 08:35:49;;;;;;;8.07;5.03;;;8.50;99.90;;;;;;5092933;28;20181;-68
2023/03/25 08:38:16;;;;;;;8.57;4.87;;;8.50;99.90;;;;;;5093914;28;20613;-68
2023/03/25 08:40:42;;;;;;;8.27;5.07;;;8.60;99.90;;;;;;5092756;28;20209;-68
2023/03/25 08:43:10;;;;;;;8.27;5.40;;;8.50;99.90;;;;;;5093966;28;20256;-70
2023/03/25 08:45:36;;;;;;;9.87;4.67;;;8.50;99.90;;;;;;5094319;28;20185;-68
2023/03/25 08:48:02;;;;;;;6.47;4.20;;;8.50;99.90;;;;;;5094356;28;20188;-69
2023/03/25 08:50:29;;;;;;;10.40;4.57;;;8.50;99.90;;;;;;5093957;28;20177;-68
2023/03/25 08:52:57;;;;;;;8.63;5.00;;;8.50;99.90;;;;;;5093638;28;20185;-68
2023/03/25 08:55:24;;;;;;;9.47;4.37;;;8.60;99.90;;;;;;5092296;28;20651;-69
2023/03/25 08:57:49;;;;;;;15.90;4.73;;;8.70;99.90;;;;;;5093650;28;20291;-69
2023/03/25 09:00:16;;;;;;;9.70;4.60;;;8.80;99.90;;;;;;5093881;28;20342;-69
2023/03/25 09:02:42;;;;;;;8.30;4.60;;;8.90;99.90;;;;;;5093816;28;20169;-69
2023/03/25 09:05:10;;;;;;;14.23;5.43;;;9.10;99.90;;;;;;5093646;28;20177;-69
2023/03/25 09:07:37;;;;;;;6.83;4.50;;;9.20;99.90;;;;;;5091915;28;20643;-69
2023/03/25 09:10:05;;;;;;;10.93;4.90;;;9.20;99.90;;;;;;5092255;28;20185;-68
2023/03/25 09:12:30;;;;;;;12.60;4.60;;;9.20;99.90;;;;;;5093729;28;20641;-69
2023/03/25 09:14:56;;;;;;;11.70;4.87;;;9.20;99.90;;;;;;5093598;28;20181;-69
2023/03/25 09:17:22;;;;;;;7.50;4.40;;;9.10;99.90;;;;;;5093719;28;20200;-69
2023/03/25 09:19:48;;;;;;;7.27;4.37;;;9.20;99.90;;;;;;5092097;28;20209;-69
2023/03/25 09:22:14;;;;;;;13.63;4.50;;;9.20;99.90;;;;;;5093628;28;20264;-68
2023/03/25 09:24:40;;;;;;;9.53;4.53;;;9.20;99.90;;;;;;5093436;28;20169;-69
2023/03/25 09:27:06;;;;;;;15.43;4.97;;;9.20;99.90;;;;;;5093675;28;20252;-73
2023/03/25 09:29:32;;;;;;;7.90;4.63;;;9.30;99.90;;;;;;5093749;28;20177;-72
2023/03/25 09:31:59;;;;;;;15.03;5.50;;;9.30;99.90;;;;;;5092458;28;20637;-71
2023/03/25 09:34:26;;;;;;;14.77;4.93;;;9.30;99.90;;;;;;5092144;28;20203;-64
2023/03/25 09:36:53;;;;;;;13.93;4.97;;;9.40;99.90;;;;;;5093757;28;20225;-63
2023/03/25 09:39:19;;;;;;;16.73;5.37;;;9.60;99.90;;;;;;5092046;28;20277;-66
2023/03/25 09:41:52;;;;;;;8.80;4.23;;;9.60;99.90;;;;;;5093708;28;20580;-66
2023/03/25 09:44:38;;;;;;;12.20;4.83;;;9.70;99.90;;;;;;5093886;28;20573;-66
2023/03/25 09:47:07;;;;;;;8.33;4.97;;;9.70;99.90;;;;;;5095237;28;20166;-69
2023/03/25 09:49:40;;;;;;;10.63;4.80;;;9.70;99.90;;;;;;5093705;28;20166;-66
2023/03/25 09:52:14;;;;;;;9.07;4.97;;;9.60;99.90;;;;;;5093504;28;20650;-66
2023/03/25 09:54:48;;;;;;;14.07;4.87;;;9.70;99.90;;;;;;5095949;28;20166;-67
2023/03/25 09:57:19;;;;;;;10.30;4.50;;;9.80;99.90;;;;;;5093089;28;20184;-65
2023/03/25 09:59:48;;;;;;;8.33;4.67;;;9.90;99.90;;;;;;5093897;28;20712;-67
2023/03/25 10:02:25;;;;;;;10.77;4.60;;;10.10;99.90;;;;;;5093494;28;20219;-66
2023/03/25 10:04:57;;;;;;;12.43;4.50;;;10.30;99.90;;;;;;5093114;28;20160;-66
2023/03/25 10:07:32;;;;;;;10.73;4.50;;;10.30;99.90;;;;;;5093010;28;20235;-65
2023/03/25 10:10:22;;;;;;;13.68;5.18;;;10.20;99.90;;;;;;5091681;28;20177;-66
2023/03/25 10:13:11;;;;;;;14.25;4.32;;;10.20;99.90;;;;;;5091778;28;20173;-65
2023/03/25 10:15:47;;;;;;;11.60;4.47;;;10.20;99.90;;;;;;5092923;28;20650;-64
2023/03/25 10:18:22;;;;;;;12.70;4.63;;;10.20;99.90;;;;;;5092628;28;20254;-64
2023/03/25 10:20:56;;;;;;;13.63;4.95;;;10.10;99.90;;;;;;5096592;28;20199;-64
2023/03/25 10:23:27;;;;;;;12.30;4.53;;;10.20;99.90;;;;;;5095098;28;20234;-64
2023/03/25 10:26:01;;;;;;;12.40;4.78;;;10.20;99.90;;;;;;5096466;28;20168;-64
2023/03/25 10:28:32;;;;;;;10.48;4.50;;;10.20;99.90;;;;;;5096619;28;20189;-64
2023/03/25 10:30:59;;;;;;;12.18;4.88;;;10.30;99.90;;;;;;5096693;28;20181;-63
2023/03/25 10:33:40;;;;;;;12.02;4.95;;;10.20;99.90;;;;;;5095123;28;20173;-64
2023/03/25 10:36:13;;;;;;;13.45;5.43;;;10.20;99.90;;;;;;5096251;28;20196;-64
2023/03/25 10:38:40;;;;;;;11.77;5.03;;;10.20;99.90;;;;;;5096064;28;20189;-64
2023/03/25 10:41:31;;;;;;;13.40;4.80;;;10.30;99.90;;;;;;5096493;28;20193;-64
2023/03/25 10:43:57;;;;;;;15.68;5.00;;;10.30;99.90;;;;;;5094870;28;20175;-66
2023/03/25 10:46:46;;;;;;;10.68;4.40;;;10.40;99.90;;;;;;5096388;28;20252;-64
2023/03/25 10:49:16;;;;;;;10.63;4.50;;;10.60;99.90;;;;;;5094738;28;20197;-64
2023/03/25 10:51:42;;;;;;;12.40;4.43;;;10.50;99.90;;;;;;5094734;28;20185;-65
2023/03/25 10:54:11;;;;;;;15.23;5.80;;;10.60;99.90;;;;;;5094576;28;20264;-65
2023/03/25 10:56:45;;;;;;;14.80;4.88;;;10.80;99.90;;;;;;5095788;28;20542;-64
2023/03/25 10:59:23;;;;;;;13.63;5.15;;;10.90;99.90;;;;;;5095953;28;20216;-66
2023/03/25 11:01:52;;;;;;;10.73;4.15;;;10.80;99.90;;;;;;5096509;28;20260;-65
2023/03/25 11:04:20;;;;;;;10.98;4.43;;;10.70;99.90;;;;;;5095789;28;20648;-66
2023/03/25 11:06:54;;;;;;;10.77;4.72;;;10.70;99.90;;;;;;5094486;28;20185;-66
2023/03/25 11:09:31;;;;;;;9.60;3.80;;;10.80;99.90;;;;;;5095516;28;20209;-66
2023/03/25 11:12:01;;;;;;;10.55;4.80;;;10.90;99.90;;;;;;5095842;28;20161;-66
2023/03/25 11:14:28;;;;;;;11.17;4.50;;;11.00;99.90;;;;;;5095618;28;20192;-66
2023/03/25 11:17:02;;;;;;;12.68;4.22;;;11.10;99.90;;;;;;5095769;28;20181;-67
2023/03/25 11:19:31;;;;;;;9.93;4.13;;;11.00;99.90;;;;;;5095972;28;20620;-67
2023/03/25 11:22:01;;;;;;;12.85;4.25;;;11.00;99.90;;;;;;5095387;28;20591;-66
2023/03/25 11:24:33;;;;;;;9.93;4.15;;;11.30;99.90;;;;;;5095226;28;20252;-67
2023/03/25 11:27:00;;;;;;;13.52;4.55;;;11.30;99.90;;;;;;5093957;28;20177;-66
2023/03/25 11:29:27;;;;;;;15.80;4.93;;;11.20;99.90;;;;;;5095555;28;20268;-67
2023/03/25 11:32:14;;;;;;;10.98;4.68;;;10.90;99.90;;;;;;5095374;28;20235;-67
2023/03/25 11:34:40;;;;;;;7.70;4.20;;;11.00;99.90;;;;;;5095233;28;20173;-67
2023/03/25 11:37:17;;;;;;;11.27;4.65;;;10.80;99.90;;;;;;5095363;28;20181;-67
2023/03/25 11:39:54;;;;;;;13.93;5.00;;;10.40;99.90;;;;;;5095073;28;20192;-66
2023/03/25 11:42:31;;;;;;;10.40;4.60;;;9.90;99.90;;;;;;5093742;28;20169;-67
2023/03/25 11:44:59;;;;;;;9.83;4.83;;;9.70;99.90;;;;;;5093869;28;20203;-66
2023/03/25 11:47:30;;;;;;;10.47;4.70;;;9.50;99.90;;;;;;5093587;28;20575;-66
2023/03/25 11:49:56;;;;;;;11.73;4.50;;;9.50;99.90;;;;;;5095173;28;20178;-67
2023/03/25 11:52:31;;;;;;;13.30;4.80;;;9.50;99.90;;;;;;5095045;28;20218;-67
2023/03/25 11:54:56;;;;;;;11.93;5.40;;;9.50;99.90;;;;;;5094808;28;20208;-67
2023/03/25 11:57:26;;;;;;;12.50;5.50;;;9.60;99.90;;;;;;5093429;28;20254;-68
2023/03/25 12:00:18;;;;;;;14.00;5.43;;;9.70;99.90;;;;;;5094834;28;20552;-67
2023/03/25 12:02:44;;;;;;;14.17;4.77;;;9.60;99.90;;;;;;5095013;28;20172;-67
2023/03/25 12:05:13;;;;;;;15.67;6.37;;;9.60;99.90;;;;;;5094957;28;20218;-67
2023/03/25 12:07:43;;;;;;;9.83;4.90;;;9.60;99.90;;;;;;5094944;28;20726;-67
2023/03/25 12:10:24;;;;;;;12.97;5.37;;;9.60;99.90;;;;;;5094300;28;20642;-67
2023/03/25 12:13:02;;;;;;;13.20;5.53;;;9.60;99.90;;;;;;5094496;28;20165;-67
2023/03/25 12:15:57;;;;;;;13.50;5.50;;;9.50;99.90;;;;;;5094454;28;20168;-67
2023/03/25 12:18:40;;;;;;;16.30;5.23;;;9.30;99.90;;;;;;5085202;28;20730;-66
2023/03/25 12:21:16;;;;;;;14.47;5.63;;;9.20;99.90;;;;;;5094357;28;20239;-67
2023/03/25 12:24:00;;;;;;;19.80;5.40;;;9.30;99.90;;;;;;5094056;28;20180;-67
2023/03/25 12:26:40;;;;;;;17.90;6.10;;;9.70;99.90;;;;;;5093456;28;20185;-75
2023/03/25 12:29:18;;;;;;;9.80;4.87;;;10.20;99.90;;;;;;5093044;28;20204;-74
2023/03/25 12:32:02;;;;;;;8.43;4.80;;;10.40;99.90;;;;;;5096044;28;20621;-71
2023/03/25 12:35:10;;;;;;;12.38;4.80;;;10.30;99.90;;;;;;5093046;28;20636;-75
2023/03/25 12:38:09;;;;;;;9.60;4.60;;;10.10;99.90;;;;;;5094695;28;20275;-76
2023/03/25 12:41:09;;;;;;;10.43;4.80;;;9.80;99.90;;;;;;5092518;28;20278;-76
2023/03/25 12:44:00;;;;;;;18.33;5.10;;;9.60;99.90;;;;;;5092978;28;20173;-74
2023/03/25 12:46:45;;;;;;;14.27;5.07;;;9.40;99.90;;;;;;5094467;28;20161;-67
2023/03/25 12:49:30;;;;;;;8.03;5.27;;;9.40;99.90;;;;;;5093941;28;20201;-69
2023/03/25 12:52:13;;;;;;;8.07;4.50;;;9.60;99.90;;;;;;5094372;28;20239;-68
2023/03/25 12:54:47;;;;;;;11.67;5.20;;;10.00;99.90;;;;;;5094100;28;20193;-68
2023/03/25 12:57:37;;;;;;;10.23;4.47;;;10.40;99.90;;;;;;5093771;28;20234;-69
2023/03/25 13:00:21;;;;;;;7.60;3.53;;;10.80;99.90;;;;;;5094015;28;20199;-68
2023/03/25 13:03:11;;;;;;;7.63;4.38;;;10.90;99.90;;;;;;5094068;28;20181;-69
2023/03/25 13:06:05;;;;;;;5.57;3.67;;;11.10;99.90;;;;;;5094566;28;20232;-67
2023/03/25 13:08:49;;;;;;;6.22;3.70;;;11.30;99.90;;;;;;5093815;28;20704;-66
2023/03/25 13:11:21;;;;;;;5.05;3.47;;;11.40;99.90;;;;;;5094668;28;20553;-64
2023/03/25 13:13:50;;;;;;;8.70;4.10;;;11.30;99.90;;;;;;5094684;28;20165;-64
2023/03/25 13:16:23;;;;;;;17.35;4.20;;;11.40;99.90;;;;;;5093002;28;20230;-63